Time;durP1;ratioP1;P1;durP2;ratioP2;P2;SDS_P1;SDS_P2;PMS_P1;PMS_P2;Temp;Humidity;BMP_temperature;BMP_pressure;BME280_temperature;BME280_humidity;BME280_pressure;Samples;Min_cycle;Max_cycle;Signal;HPM_P1;HPM_P2
2022/08/25 00:01:23;;;;;;;4.60;4.22;;;25.80;50.60;;;;;;5025113;28;20201;-84
2022/08/25 00:03:50;;;;;;;4.35;4.05;;;25.80;50.40;;;;;;5024836;28;20180;-85
2022/08/25 00:06:16;;;;;;;4.47;4.13;;;25.80;50.80;;;;;;5029014;28;20189;-85
2022/08/25 00:08:42;;;;;;;4.53;4.22;;;25.70;51.70;;;;;;5028038;28;20200;-85
2022/08/25 00:11:14;;;;;;;4.60;4.30;;;25.60;52.10;;;;;;5027595;28;20256;-85
2022/08/25 00:13:43;;;;;;;4.25;3.95;;;25.40;52.90;;;;;;5026856;28;20545;-85
2022/08/25 00:16:13;;;;;;;5.97;4.10;;;25.30;53.10;;;;;;5025553;28;20177;-85
2022/08/25 00:18:40;;;;;;;4.55;4.20;;;25.30;52.80;;;;;;5028070;28;20177;-86
2022/08/25 00:21:06;;;;;;;4.20;4.00;;;25.20;53.20;;;;;;5024535;28;20209;-85
2022/08/25 00:23:32;;;;;;;4.35;3.97;;;25.20;53.20;;;;;;5024720;28;20288;-85
2022/08/25 00:25:58;;;;;;;4.50;4.20;;;25.30;53.00;;;;;;5031600;28;20224;-85
2022/08/25 00:28:24;;;;;;;4.70;4.40;;;25.20;52.90;;;;;;5025207;28;20316;-85
2022/08/25 00:30:50;;;;;;;4.07;3.88;;;25.20;53.10;;;;;;5024180;28;20220;-85
2022/08/25 00:33:17;;;;;;;4.50;4.20;;;25.20;53.20;;;;;;5022421;28;20184;-85
2022/08/25 00:35:43;;;;;;;4.30;4.03;;;25.20;53.10;;;;;;5030451;28;20270;-85
2022/08/25 00:38:10;;;;;;;5.95;4.20;;;25.00;54.10;;;;;;5024054;28;20187;-87
2022/08/25 00:40:38;;;;;;;4.38;4.07;;;24.80;54.80;;;;;;5025519;28;20209;-85
2022/08/25 00:43:06;;;;;;;4.60;4.20;;;24.70;55.30;;;;;;5024819;28;20205;-86
2022/08/25 00:45:33;;;;;;;4.43;4.13;;;24.70;55.50;;;;;;5027575;28;20227;-86
2022/08/25 00:47:59;;;;;;;4.65;4.25;;;24.70;55.50;;;;;;5029885;28;20193;-85
2022/08/25 00:50:25;;;;;;;4.43;4.13;;;24.80;54.90;;;;;;5021087;28;20217;-86
2022/08/25 00:52:54;;;;;;;4.55;3.88;;;24.70;55.40;;;;;;5023494;28;20199;-85
2022/08/25 00:55:35;;;;;;;4.53;4.13;;;24.70;55.30;;;;;;5027522;28;20213;-85
2022/08/25 00:58:20;;;;;;;4.07;3.85;;;24.80;55.20;;;;;;5028446;28;20188;-85
2022/08/25 01:00:51;;;;;;;4.68;4.28;;;24.70;55.30;;;;;;5025452;28;20712;-85
2022/08/25 01:03:18;;;;;;;4.32;4.03;;;24.70;55.30;;;;;;5028057;28;20223;-85
2022/08/25 01:05:45;;;;;;;4.53;4.22;;;24.60;56.00;;;;;;5026254;28;20237;-85
2022/08/25 01:08:12;;;;;;;4.43;4.03;;;24.50;56.70;;;;;;5029424;28;20208;-85
2022/08/25 01:10:41;;;;;;;5.00;4.60;;;24.40;57.00;;;;;;5031045;28;20205;-85
2022/08/25 01:13:28;;;;;;;5.07;4.53;;;24.30;57.40;;;;;;5027261;28;20716;-85
2022/08/25 01:15:55;;;;;;;4.57;4.28;;;24.20;57.50;;;;;;5026938;28;20204;-86
2022/08/25 01:18:21;;;;;;;4.57;4.20;;;24.30;57.40;;;;;;5025030;28;20522;-85
2022/08/25 01:20:50;;;;;;;4.60;4.30;;;24.20;57.30;;;;;;5024935;28;20201;-85
2022/08/25 01:23:16;;;;;;;4.10;3.85;;;24.20;57.70;;;;;;5024004;28;20188;-86
2022/08/25 01:26:03;;;;;;;4.38;4.07;;;24.30;57.30;;;;;;5024799;28;20189;-86
2022/08/25 01:28:29;;;;;;;5.10;4.70;;;24.20;57.70;;;;;;5028013;28;20193;-85
2022/08/25 01:30:55;;;;;;;4.72;4.32;;;24.20;57.80;;;;;;5025604;28;20234;-86
2022/08/25 01:33:21;;;;;;;3.88;3.67;;;24.20;58.00;;;;;;5026297;28;20189;-86
2022/08/25 01:35:46;;;;;;;4.50;4.20;;;24.20;57.90;;;;;;5034997;28;20196;-85
2022/08/25 01:38:13;;;;;;;4.68;4.28;;;24.20;57.80;;;;;;5038108;28;20249;-84
2022/08/25 01:40:41;;;;;;;4.38;4.07;;;24.30;57.50;;;;;;5029212;28;20220;-85
2022/08/25 01:43:10;;;;;;;4.13;3.83;;;24.40;57.10;;;;;;5032271;28;20199;-84
2022/08/25 01:45:37;;;;;;;4.25;3.95;;;24.50;56.60;;;;;;5028267;28;20522;-85
2022/08/25 01:48:05;;;;;;;4.10;3.80;;;24.50;55.70;;;;;;5027276;28;20184;-85
2022/08/25 01:50:32;;;;;;;4.60;4.30;;;24.60;55.50;;;;;;5027874;28;20250;-84
2022/08/25 01:53:01;;;;;;;4.72;4.43;;;24.60;55.80;;;;;;5028250;28;20198;-85
2022/08/25 01:55:27;;;;;;;4.47;4.18;;;24.50;56.40;;;;;;5026554;28;20184;-85
2022/08/25 01:57:53;;;;;;;5.00;4.60;;;24.40;56.60;;;;;;5036053;28;20181;-85
2022/08/25 02:00:20;;;;;;;4.28;3.97;;;24.40;56.80;;;;;;5029126;28;20563;-85
2022/08/25 02:02:46;;;;;;;4.53;4.22;;;24.30;57.00;;;;;;5031134;28;20201;-85
2022/08/25 02:05:13;;;;;;;4.95;4.55;;;24.30;57.00;;;;;;5038311;28;20268;-85
2022/08/25 02:07:41;;;;;;;4.70;4.40;;;24.30;57.40;;;;;;5030985;28;20197;-84
2022/08/25 02:10:10;;;;;;;4.20;3.90;;;24.20;57.60;;;;;;5043048;28;20220;-84
2022/08/25 02:12:36;;;;;;;5.15;4.50;;;24.00;58.40;;;;;;5035589;28;20735;-84
2022/08/25 02:15:05;;;;;;;5.20;4.28;;;23.80;58.90;;;;;;5029985;28;20443;-85
2022/08/25 02:17:35;;;;;;;4.57;4.28;;;23.80;59.40;;;;;;5032167;28;20268;-85
2022/08/25 02:20:02;;;;;;;4.05;3.75;;;23.70;59.70;;;;;;5031163;28;20213;-85
2022/08/25 02:22:28;;;;;;;8.82;4.80;;;23.70;59.50;;;;;;5026338;28;20246;-86
2022/08/25 02:24:54;;;;;;;4.13;3.88;;;23.70;59.50;;;;;;5028245;28;20192;-86
2022/08/25 02:27:19;;;;;;;5.32;4.32;;;23.80;59.40;;;;;;5028236;28;20684;-85
2022/08/25 02:29:46;;;;;;;4.28;3.97;;;23.70;59.80;;;;;;5030644;28;20216;-85
2022/08/25 02:32:11;;;;;;;4.60;4.30;;;23.60;60.60;;;;;;5027684;28;20193;-85
2022/08/25 02:34:39;;;;;;;4.30;4.00;;;23.50;60.90;;;;;;5030257;28;20181;-85
2022/08/25 02:37:07;;;;;;;4.25;4.05;;;23.40;61.20;;;;;;5027817;28;20196;-84
2022/08/25 02:39:32;;;;;;;4.53;4.18;;;23.30;61.70;;;;;;5026465;28;20485;-85
2022/08/25 02:41:58;;;;;;;4.35;4.05;;;23.30;62.10;;;;;;5048680;28;20197;-85
2022/08/25 02:44:24;;;;;;;4.57;4.28;;;23.20;62.50;;;;;;5037413;28;20204;-85
2022/08/25 02:46:50;;;;;;;4.10;3.80;;;23.20;62.60;;;;;;5029602;28;20185;-85
2022/08/25 02:49:15;;;;;;;4.60;4.30;;;23.10;63.20;;;;;;5028369;28;20271;-85
2022/08/25 02:51:41;;;;;;;4.82;4.43;;;23.00;63.70;;;;;;5027616;28;20216;-86
2022/08/25 02:54:07;;;;;;;4.95;4.40;;;22.90;64.10;;;;;;5032422;28;20258;-86
2022/08/25 02:56:33;;;;;;;4.32;4.03;;;22.80;64.50;;;;;;5026963;28;20223;-86
2022/08/25 02:59:00;;;;;;;4.63;4.32;;;22.80;64.80;;;;;;5028739;28;20194;-86
2022/08/25 03:01:26;;;;;;;4.68;4.28;;;22.70;65.30;;;;;;5027683;28;20696;-86
2022/08/25 03:03:52;;;;;;;4.18;3.88;;;22.60;65.70;;;;;;5025338;28;20201;-85
2022/08/25 03:06:23;;;;;;;4.78;4.47;;;22.50;66.10;;;;;;5026409;28;20206;-86
2022/08/25 03:08:49;;;;;;;4.45;4.07;;;22.40;66.90;;;;;;5027170;28;20271;-86
2022/08/25 03:11:15;;;;;;;4.25;4.03;;;22.30;68.30;;;;;;5026026;28;20576;-85
2022/08/25 03:13:40;;;;;;;4.68;4.38;;;22.30;68.00;;;;;;5027429;28;20181;-85
2022/08/25 03:16:07;;;;;;;4.63;4.20;;;22.20;68.00;;;;;;5028379;28;20652;-86
2022/08/25 03:18:33;;;;;;;5.22;4.38;;;22.30;68.10;;;;;;5029935;28;20254;-86
2022/08/25 03:20:59;;;;;;;4.75;4.45;;;22.30;67.80;;;;;;5028482;28;20796;-86
2022/08/25 03:23:25;;;;;;;4.30;4.00;;;22.30;67.80;;;;;;5030284;28;20184;-86
2022/08/25 03:28:38;;;;;;;4.53;4.13;;;22.40;67.00;;;;;;5026152;28;20200;-86
2022/08/25 03:31:04;;;;;;;4.80;4.40;;;22.50;66.70;;;;;;5024627;28;20614;-85
2022/08/25 03:33:30;;;;;;;4.47;4.18;;;22.50;66.50;;;;;;5011656;28;20195;-85
2022/08/25 03:35:56;;;;;;;4.90;4.60;;;22.50;67.20;;;;;;5023198;28;20185;-85
2022/08/25 03:38:24;;;;;;;5.03;4.63;;;22.30;67.70;;;;;;5030973;28;20185;-84
2022/08/25 03:40:50;;;;;;;4.30;4.00;;;22.20;68.00;;;;;;5027550;28;20627;-85
2022/08/25 03:43:16;;;;;;;4.97;4.57;;;22.00;68.20;;;;;;5025688;28;20188;-86
2022/08/25 03:45:44;;;;;;;5.07;4.60;;;22.10;68.20;;;;;;5032431;28;20220;-85
2022/08/25 03:48:10;;;;;;;4.72;4.43;;;22.10;68.10;;;;;;5024248;28;20176;-86
2022/08/25 03:50:36;;;;;;;4.68;4.38;;;22.10;68.20;;;;;;5024770;28;20232;-86
2022/08/25 03:53:02;;;;;;;5.25;4.70;;;22.10;67.90;;;;;;5026862;28;20290;-86
2022/08/25 03:55:28;;;;;;;4.70;4.35;;;22.30;67.20;;;;;;5025541;28;20611;-86
2022/08/25 03:57:54;;;;;;;5.22;4.47;;;22.50;66.50;;;;;;5025083;28;20273;-85
2022/08/25 04:00:21;;;;;;;4.88;4.57;;;22.50;66.30;;;;;;5024647;28;20213;-86
2022/08/25 04:02:47;;;;;;;5.47;5.03;;;22.60;65.60;;;;;;5030650;28;20185;-86
2022/08/25 04:05:13;;;;;;;4.55;4.25;;;22.60;65.40;;;;;;5024907;28;20201;-86
2022/08/25 04:07:39;;;;;;;4.97;4.57;;;22.80;64.20;;;;;;5029130;28;20188;-86
2022/08/25 04:10:08;;;;;;;4.85;4.55;;;22.90;63.40;;;;;;5026160;28;20232;-86
2022/08/25 04:12:35;;;;;;;5.20;4.80;;;22.90;63.30;;;;;;5023295;28;20455;-87
2022/08/25 04:15:01;;;;;;;5.85;5.32;;;22.90;63.80;;;;;;5023713;28;20189;-85
2022/08/25 04:17:27;;;;;;;6.10;4.53;;;22.90;63.90;;;;;;5025263;28;20188;-86
2022/08/25 04:19:53;;;;;;;5.15;4.72;;;22.80;64.00;;;;;;5022750;28;20288;-86
2022/08/25 04:22:18;;;;;;;4.95;4.43;;;22.80;64.60;;;;;;5029165;28;20640;-86
2022/08/25 04:24:44;;;;;;;4.93;4.50;;;22.50;66.00;;;;;;5025386;28;20204;-84
2022/08/25 04:27:10;;;;;;;5.20;4.80;;;22.30;67.70;;;;;;5025811;28;20201;-86
2022/08/25 04:29:35;;;;;;;5.20;4.90;;;22.20;68.10;;;;;;5023295;28;20201;-85
2022/08/25 04:32:01;;;;;;;4.93;4.50;;;22.10;69.20;;;;;;5030482;28;20185;-86
2022/08/25 04:34:27;;;;;;;4.75;4.43;;;22.10;69.00;;;;;;5023627;28;20195;-85
2022/08/25 04:36:53;;;;;;;5.25;4.80;;;22.20;67.30;;;;;;5022394;28;20637;-86
2022/08/25 04:39:20;;;;;;;4.72;4.43;;;22.20;67.80;;;;;;5026102;28;20194;-84
2022/08/25 04:41:49;;;;;;;5.32;4.75;;;22.20;67.10;;;;;;5022576;28;20213;-85
2022/08/25 04:44:16;;;;;;;4.88;4.47;;;22.30;66.80;;;;;;5023316;28;20420;-85
2022/08/25 04:46:42;;;;;;;5.00;4.63;;;22.40;66.30;;;;;;5030045;28;20181;-85
2022/08/25 04:49:08;;;;;;;5.22;4.72;;;22.30;67.70;;;;;;5023818;28;20675;-84
2022/08/25 04:51:38;;;;;;;4.72;4.43;;;22.10;69.40;;;;;;5020484;28;20708;-86
2022/08/25 04:54:08;;;;;;;5.03;4.68;;;21.90;69.70;;;;;;5030003;28;20688;-85
2022/08/25 04:56:34;;;;;;;5.85;5.30;;;21.70;71.00;;;;;;5023536;28;20198;-85
2022/08/25 04:59:17;;;;;;;5.55;5.15;;;21.50;71.90;;;;;;5030261;28;20192;-85
2022/08/25 05:01:45;;;;;;;8.43;5.70;;;21.30;73.00;;;;;;5025772;28;20428;-85
2022/08/25 05:04:13;;;;;;;6.85;5.50;;;21.30;73.40;;;;;;5025977;28;20281;-84
2022/08/25 05:06:39;;;;;;;6.03;5.43;;;21.20;74.20;;;;;;5024768;28;20452;-85
2022/08/25 05:09:05;;;;;;;5.85;5.30;;;21.10;74.50;;;;;;5030166;28;20184;-86
2022/08/25 05:11:31;;;;;;;7.80;5.50;;;21.30;73.80;;;;;;5026689;28;20624;-85
2022/08/25 05:13:59;;;;;;;5.82;5.10;;;21.40;73.10;;;;;;5031026;28;20181;-85
2022/08/25 05:16:25;;;;;;;6.13;5.30;;;21.50;72.10;;;;;;5029152;28;20476;-86
2022/08/25 05:18:52;;;;;;;6.35;5.75;;;21.70;71.20;;;;;;5024305;28;20197;-86
2022/08/25 05:21:21;;;;;;;8.85;5.75;;;21.70;71.50;;;;;;5028125;28;20217;-85
2022/08/25 05:23:47;;;;;;;5.82;5.32;;;21.60;72.00;;;;;;5027880;28;20639;-85
2022/08/25 05:26:20;;;;;;;6.15;5.63;;;21.70;71.40;;;;;;5026907;28;20196;-85
2022/08/25 05:28:50;;;;;;;6.00;5.50;;;21.80;71.30;;;;;;5024968;28;20249;-84
2022/08/25 05:31:16;;;;;;;5.85;5.35;;;21.80;71.10;;;;;;5033841;28;20220;-85
2022/08/25 05:33:43;;;;;;;6.45;5.85;;;21.70;71.70;;;;;;5024455;28;20220;-81
2022/08/25 05:36:09;;;;;;;7.28;6.57;;;21.70;71.40;;;;;;5028265;28;20181;-84
2022/08/25 05:38:36;;;;;;;5.93;5.43;;;21.90;70.70;;;;;;5027505;28;20200;-84
2022/08/25 05:41:05;;;;;;;5.93;5.43;;;22.00;70.10;;;;;;5025577;28;20204;-85
2022/08/25 05:43:31;;;;;;;6.00;5.22;;;22.00;70.20;;;;;;5030016;28;20726;-84
2022/08/25 05:45:58;;;;;;;6.28;5.68;;;22.10;70.20;;;;;;5033071;28;20277;-84
2022/08/25 05:48:25;;;;;;;6.28;5.68;;;22.00;70.00;;;;;;5026073;28;20316;-84
2022/08/25 05:50:56;;;;;;;6.03;5.43;;;22.10;70.10;;;;;;5027868;28;20224;-84
2022/08/25 05:53:23;;;;;;;5.93;5.43;;;22.10;70.30;;;;;;5042140;28;20242;-85
2022/08/25 05:55:50;;;;;;;6.65;5.43;;;22.20;69.80;;;;;;5029671;28;20193;-84
2022/08/25 05:58:16;;;;;;;6.05;5.45;;;22.20;69.80;;;;;;5046889;28;20236;-84
2022/08/25 06:00:42;;;;;;;7.18;5.55;;;22.30;70.10;;;;;;5037236;28;20217;-82
2022/08/25 06:03:07;;;;;;;6.10;5.50;;;22.30;69.70;;;;;;5050457;28;20204;-82
2022/08/25 06:05:33;;;;;;;6.40;5.80;;;22.30;69.90;;;;;;5048503;28;20188;-82
2022/08/25 06:07:59;;;;;;;6.13;5.63;;;22.20;70.40;;;;;;5036892;28;20545;-83
2022/08/25 06:10:26;;;;;;;10.60;6.22;;;22.30;70.00;;;;;;5031001;28;20213;-84
2022/08/25 06:12:52;;;;;;;6.25;5.70;;;22.40;69.70;;;;;;5028357;28;20185;-84
2022/08/25 06:15:20;;;;;;;7.60;5.80;;;22.40;69.30;;;;;;5027742;28;20189;-84
2022/08/25 06:17:47;;;;;;;7.90;7.20;;;22.50;69.20;;;;;;5031103;28;20193;-84
2022/08/25 06:20:25;;;;;;;6.40;5.80;;;22.50;69.50;;;;;;5027767;28;20209;-84
2022/08/25 06:22:51;;;;;;;7.43;5.88;;;22.40;69.70;;;;;;5028251;28;20534;-84
2022/08/25 06:25:20;;;;;;;6.45;5.95;;;22.40;69.60;;;;;;5027100;28;20199;-84
2022/08/25 06:27:46;;;;;;;6.60;6.00;;;22.50;69.50;;;;;;5030907;28;20181;-84
2022/08/25 06:30:16;;;;;;;7.53;6.00;;;22.60;69.20;;;;;;5027416;28;20217;-84
2022/08/25 06:32:43;;;;;;;6.85;5.63;;;22.60;69.10;;;;;;5027418;28;20185;-83
2022/08/25 06:35:14;;;;;;;6.78;6.20;;;22.60;69.10;;;;;;5027573;28;20178;-84
2022/08/25 06:37:41;;;;;;;7.07;6.47;;;22.60;68.80;;;;;;5034540;28;20223;-84
2022/08/25 06:40:08;;;;;;;6.15;5.65;;;22.60;68.80;;;;;;5027972;28;20633;-84
2022/08/25 06:42:34;;;;;;;6.47;5.97;;;22.70;68.30;;;;;;5026109;28;20296;-84
2022/08/25 06:45:00;;;;;;;6.22;5.72;;;22.80;68.10;;;;;;5026360;28;20217;-84
2022/08/25 06:47:26;;;;;;;7.53;6.82;;;22.80;67.90;;;;;;5029074;28;20554;-84
2022/08/25 06:49:51;;;;;;;6.95;6.35;;;22.80;68.20;;;;;;5028327;28;20240;-84
2022/08/25 06:52:17;;;;;;;7.53;6.85;;;22.90;68.10;;;;;;5025751;28;20184;-84
2022/08/25 06:54:43;;;;;;;6.95;6.35;;;23.00;67.40;;;;;;5023328;28;20193;-84
2022/08/25 06:57:08;;;;;;;6.95;6.40;;;23.10;67.00;;;;;;5030991;28;20264;-84
2022/08/25 06:59:36;;;;;;;6.80;6.30;;;23.20;66.60;;;;;;5033134;28;20264;-84
2022/08/25 07:02:03;;;;;;;7.20;6.50;;;23.30;66.40;;;;;;5024790;28;20193;-84
2022/08/25 07:04:28;;;;;;;7.22;6.55;;;23.40;66.00;;;;;;5027337;28;20703;-84
2022/08/25 07:06:54;;;;;;;7.03;6.53;;;23.40;66.40;;;;;;5025841;28;20201;-84
2022/08/25 07:09:20;;;;;;;6.82;6.32;;;23.50;66.30;;;;;;5028202;28;20348;-84
2022/08/25 07:11:46;;;;;;;8.45;6.78;;;23.50;66.40;;;;;;5029923;28;20205;-83
2022/08/25 07:14:15;;;;;;;6.40;5.90;;;23.60;66.40;;;;;;5030361;28;20202;-83
2022/08/25 07:16:42;;;;;;;6.15;5.65;;;23.70;65.90;;;;;;5029396;28;20177;-84
2022/08/25 07:19:09;;;;;;;7.18;6.53;;;23.90;64.80;;;;;;5030339;28;20188;-83
2022/08/25 07:21:37;;;;;;;7.15;6.45;;;24.00;64.40;;;;;;5024514;28;20201;-84
2022/08/25 07:24:11;;;;;;;7.22;6.53;;;24.00;63.50;;;;;;5026012;28;20189;-84
2022/08/25 07:26:39;;;;;;;7.00;6.50;;;24.00;64.00;;;;;;5026132;28;20181;-84
2022/08/25 07:29:18;;;;;;;7.15;6.55;;;24.10;64.50;;;;;;5025958;28;20182;-85
2022/08/25 07:31:44;;;;;;;6.78;6.18;;;24.00;64.10;;;;;;5026994;28;20215;-84
2022/08/25 07:36:55;;;;;;;7.30;6.60;;;24.20;63.90;;;;;;5028027;28;20235;-84
2022/08/25 07:39:22;;;;;;;6.97;6.45;;;24.40;63.30;;;;;;5027209;28;20185;-84
2022/08/25 07:41:49;;;;;;;6.78;6.28;;;24.60;62.50;;;;;;5028446;28;20209;-83
2022/08/25 07:44:14;;;;;;;6.35;5.85;;;24.80;61.40;;;;;;5031799;28;20212;-84
2022/08/25 07:46:40;;;;;;;7.07;6.47;;;24.90;61.50;;;;;;5034501;28;20177;-85
2022/08/25 07:49:06;;;;;;;7.05;6.45;;;25.00;60.50;;;;;;5026132;28;20240;-85
2022/08/25 07:51:32;;;;;;;6.85;6.25;;;25.10;59.60;;;;;;5027045;28;20236;-85
2022/08/25 07:53:58;;;;;;;6.60;6.10;;;25.10;60.20;;;;;;5026280;28;20433;-85
2022/08/25 07:56:23;;;;;;;7.45;6.72;;;25.30;59.40;;;;;;5025529;28;20185;-85
2022/08/25 07:58:49;;;;;;;7.18;6.57;;;25.40;59.50;;;;;;5023750;28;20185;-85
2022/08/25 08:01:17;;;;;;;7.43;6.82;;;25.50;58.60;;;;;;5025426;28;20676;-85
2022/08/25 08:03:43;;;;;;;7.88;7.05;;;25.60;58.40;;;;;;5029759;28;20251;-85
2022/08/25 08:06:12;;;;;;;7.25;6.75;;;25.60;58.40;;;;;;5027759;28;20190;-85
2022/08/25 08:08:43;;;;;;;7.50;6.95;;;25.50;58.80;;;;;;5029335;28;20185;-85
2022/08/25 08:11:25;;;;;;;7.85;7.28;;;25.50;58.90;;;;;;5026122;28;20225;-84
2022/08/25 08:13:53;;;;;;;7.75;7.13;;;25.50;58.70;;;;;;5027299;28;20182;-83
2022/08/25 08:16:19;;;;;;;7.03;6.50;;;25.60;58.80;;;;;;5029242;28;20636;-84
2022/08/25 08:18:45;;;;;;;7.03;6.53;;;25.80;57.50;;;;;;5025790;28;20192;-85
2022/08/25 08:21:21;;;;;;;6.97;6.47;;;26.00;57.70;;;;;;5025321;28;20778;-85
2022/08/25 08:23:48;;;;;;;7.07;6.57;;;26.10;57.20;;;;;;5026335;28;20207;-85
2022/08/25 08:26:14;;;;;;;7.53;6.80;;;26.30;56.80;;;;;;5025106;28;20193;-84
2022/08/25 08:28:40;;;;;;;7.30;6.70;;;26.50;56.10;;;;;;5024837;28;20196;-84
2022/08/25 08:31:06;;;;;;;7.38;6.78;;;26.60;54.80;;;;;;5028877;28;20228;-84
2022/08/25 08:33:33;;;;;;;6.80;6.30;;;26.70;54.60;;;;;;5027446;28;20532;-84
2022/08/25 08:36:01;;;;;;;8.13;6.63;;;26.70;55.00;;;;;;5024094;28;20752;-85
2022/08/25 08:38:27;;;;;;;6.72;6.22;;;26.90;53.50;;;;;;5037551;28;20189;-83
2022/08/25 08:44:06;;;;;;;9.38;6.93;;;27.20;52.50;;;;;;5030250;28;20248;-84
2022/08/25 08:47:05;;;;;;;6.85;6.35;;;27.30;52.50;;;;;;5029051;28;20433;-85
2022/08/25 08:49:55;;;;;;;7.18;6.68;;;27.40;51.30;;;;;;5020364;28;20710;-85
2022/08/25 08:52:30;;;;;;;6.70;6.18;;;27.40;51.90;;;;;;5024291;28;20688;-84
2022/08/25 08:55:02;;;;;;;6.90;6.38;;;27.60;50.80;;;;;;5023794;28;20576;-84
2022/08/25 08:57:28;;;;;;;7.30;6.70;;;27.70;50.50;;;;;;5024074;28;20788;-85
2022/08/25 08:59:59;;;;;;;6.70;6.13;;;27.70;50.80;;;;;;5022805;28;20197;-85
2022/08/25 09:02:32;;;;;;;6.75;6.25;;;27.90;50.00;;;;;;5027960;28;20263;-85
2022/08/25 09:05:01;;;;;;;7.60;6.45;;;28.00;49.90;;;;;;5023975;28;20232;-85
2022/08/25 09:07:46;;;;;;;7.35;6.82;;;28.20;48.40;;;;;;5028962;28;20263;-85
2022/08/25 09:10:13;;;;;;;6.97;6.38;;;28.40;48.40;;;;;;5028079;28;20232;-85
2022/08/25 09:12:47;;;;;;;6.95;6.45;;;28.60;47.20;;;;;;5029837;28;20204;-84
2022/08/25 09:18:30;;;;;;;7.13;6.47;;;28.70;46.60;;;;;;5026912;28;20591;-86
2022/08/25 09:21:12;;;;;;;7.18;6.57;;;28.80;45.40;;;;;;5024648;28;20212;-87
2022/08/25 09:23:53;;;;;;;6.80;6.20;;;28.60;45.80;;;;;;5024931;28;20676;-85
2022/08/25 09:26:31;;;;;;;6.85;6.25;;;28.80;45.10;;;;;;5028257;28;20191;-85
2022/08/25 09:29:21;;;;;;;7.35;6.57;;;28.90;44.50;;;;;;5028757;28;20190;-85
2022/08/25 09:31:47;;;;;;;6.68;6.28;;;29.30;44.70;;;;;;5044053;28;20200;-84
2022/08/25 09:34:21;;;;;;;6.60;6.00;;;29.40;43.90;;;;;;5042922;28;20173;-84
2022/08/25 09:36:51;;;;;;;8.30;6.30;;;29.50;42.60;;;;;;5047184;28;20192;-83
2022/08/25 09:39:18;;;;;;;6.80;6.20;;;29.60;42.00;;;;;;5029378;28;20815;-86
2022/08/25 09:41:54;;;;;;;6.95;6.45;;;29.80;41.80;;;;;;5023368;28;20228;-85
2022/08/25 09:44:39;;;;;;;7.05;6.55;;;30.00;41.40;;;;;;5023675;28;20173;-84
2022/08/25 09:47:06;;;;;;;6.80;6.28;;;30.10;40.70;;;;;;5023040;28;20188;-85
2022/08/25 09:50:04;;;;;;;6.82;6.25;;;30.20;40.90;;;;;;5022130;28;20205;-84
2022/08/25 09:52:40;;;;;;;7.55;6.85;;;30.20;41.00;;;;;;5022365;28;20268;-84
2022/08/25 09:55:12;;;;;;;7.10;6.47;;;30.30;39.70;;;;;;5031027;28;20184;-84
2022/08/25 09:57:47;;;;;;;6.88;6.38;;;30.30;39.40;;;;;;5029926;28;20179;-84
2022/08/25 10:00:13;;;;;;;6.75;6.25;;;30.30;39.90;;;;;;5033868;28;20274;-85
2022/08/25 10:02:39;;;;;;;7.20;6.60;;;30.40;39.80;;;;;;5032957;28;20211;-85
2022/08/25 10:05:23;;;;;;;6.78;6.35;;;30.50;39.00;;;;;;5029390;28;20717;-85
2022/08/25 10:08:00;;;;;;;6.72;6.20;;;30.90;38.10;;;;;;5027669;28;20181;-85
2022/08/25 10:10:32;;;;;;;6.72;6.10;;;30.90;37.60;;;;;;5028022;28;20522;-85
2022/08/25 10:13:00;;;;;;;6.88;6.47;;;31.10;38.00;;;;;;5031700;28;20275;-86
2022/08/25 10:15:31;;;;;;;7.07;6.45;;;31.20;37.60;;;;;;5031941;28;20269;-85
2022/08/25 10:18:27;;;;;;;7.10;6.60;;;31.40;37.30;;;;;;5034528;28;20181;-85
2022/08/25 10:21:13;;;;;;;6.72;6.22;;;31.20;37.10;;;;;;5033024;28;20209;-85
2022/08/25 10:23:51;;;;;;;8.57;6.60;;;31.20;37.40;;;;;;5032173;28;20188;-86
2022/08/25 10:26:41;;;;;;;7.28;6.68;;;31.20;37.30;;;;;;5032457;28;20191;-85
2022/08/25 10:29:29;;;;;;;6.80;6.35;;;31.50;36.70;;;;;;5033246;28;20181;-85
2022/08/25 10:32:24;;;;;;;7.10;6.50;;;31.70;36.00;;;;;;5033028;28;20208;-86
2022/08/25 10:34:55;;;;;;;7.05;6.35;;;31.70;35.20;;;;;;5019489;28;20208;-85
2022/08/25 10:37:37;;;;;;;6.38;5.88;;;32.00;35.20;;;;;;5033521;28;20187;-85
2022/08/25 10:40:21;;;;;;;6.90;6.40;;;32.00;34.80;;;;;;5047166;28;20545;-85
2022/08/25 10:43:09;;;;;;;7.03;6.53;;;32.20;34.70;;;;;;5031886;28;20177;-86
2022/08/25 10:45:46;;;;;;;7.28;6.68;;;32.40;34.40;;;;;;5032865;28;20196;-85
2022/08/25 10:48:51;;;;;;;7.07;6.47;;;32.10;34.80;;;;;;5030361;28;20184;-86
2022/08/25 10:51:39;;;;;;;7.75;7.10;;;32.20;34.30;;;;;;5019164;28;20212;-86
2022/08/25 10:54:20;;;;;;;6.95;6.55;;;32.10;34.90;;;;;;5033442;28;20690;-86
2022/08/25 10:57:00;;;;;;;7.60;7.00;;;32.20;34.80;;;;;;5030580;28;20787;-86
2022/08/25 10:59:26;;;;;;;7.50;7.00;;;32.60;33.90;;;;;;5031696;28;20561;-87
2022/08/25 11:02:06;;;;;;;7.25;6.57;;;32.80;33.30;;;;;;5033003;28;20208;-86
2022/08/25 11:04:58;;;;;;;7.60;6.90;;;32.80;33.30;;;;;;5032083;28;20192;-86
2022/08/25 11:07:37;;;;;;;7.90;7.18;;;32.90;32.70;;;;;;5029660;28;20196;-85
2022/08/25 11:10:16;;;;;;;7.35;6.75;;;33.20;32.70;;;;;;5033036;28;20219;-86
2022/08/25 11:12:48;;;;;;;7.18;6.70;;;33.00;33.00;;;;;;5031004;28;20235;-83
2022/08/25 11:15:21;;;;;;;7.90;7.25;;;33.20;32.80;;;;;;5033560;28;20243;-87
2022/08/25 11:17:59;;;;;;;7.60;7.10;;;33.30;32.30;;;;;;5029782;28;20181;-87
2022/08/25 11:20:47;;;;;;;6.93;6.53;;;33.20;32.30;;;;;;5033045;28;20291;-86
2022/08/25 11:23:52;;;;;;;8.02;7.22;;;33.90;31.60;;;;;;5029362;28;20197;-84
2022/08/25 11:26:32;;;;;;;7.32;6.82;;;34.20;31.50;;;;;;4997241;28;20294;-86
2022/08/25 11:29:07;;;;;;;7.53;7.13;;;33.80;31.00;;;;;;5032300;28;20259;-86
2022/08/25 11:31:41;;;;;;;7.95;7.35;;;33.70;31.40;;;;;;5030765;28;20771;-86
2022/08/25 11:34:17;;;;;;;7.47;6.95;;;33.50;32.90;;;;;;5029358;28;20221;-86
2022/08/25 11:36:51;;;;;;;7.55;6.90;;;33.90;30.90;;;;;;5044314;28;20679;-86
2022/08/25 11:39:32;;;;;;;7.68;7.18;;;33.90;30.60;;;;;;5031363;28;20213;-86
2022/08/25 11:42:20;;;;;;;7.45;6.85;;;34.10;30.80;;;;;;5032506;28;20232;-86
2022/08/25 11:45:04;;;;;;;8.00;7.20;;;34.30;30.70;;;;;;5033434;28;20232;-86
2022/08/25 11:47:54;;;;;;;7.95;7.25;;;34.60;30.50;;;;;;5032509;28;20220;-85
2022/08/25 11:50:31;;;;;;;7.30;6.80;;;34.40;30.70;;;;;;5032516;28;20579;-86
2022/08/25 11:53:13;;;;;;;7.15;6.72;;;34.80;29.50;;;;;;5032030;28;20686;-87
2022/08/25 11:55:52;;;;;;;7.28;6.72;;;35.10;29.60;;;;;;5029750;28;20177;-86
2022/08/25 11:58:27;;;;;;;8.50;7.72;;;35.20;29.50;;;;;;5032220;28;20239;-86
2022/08/25 12:00:54;;;;;;;7.75;7.10;;;35.10;29.20;;;;;;5032596;28;20247;-86
2022/08/25 12:03:34;;;;;;;7.28;6.60;;;35.30;29.50;;;;;;5033634;28;20200;-86
2022/08/25 12:06:21;;;;;;;7.70;7.18;;;35.50;29.20;;;;;;5032294;28;20864;-87
2022/08/25 12:09:11;;;;;;;7.50;7.10;;;35.80;28.40;;;;;;5031805;28;20275;-86
2022/08/25 12:11:37;;;;;;;7.72;7.28;;;35.70;28.40;;;;;;5025228;28;20296;-86
2022/08/25 12:14:20;;;;;;;7.72;6.95;;;35.80;28.50;;;;;;5034211;28;20204;-84
2022/08/25 12:16:55;;;;;;;8.10;7.50;;;35.50;28.60;;;;;;5033124;28;20169;-87
2022/08/25 12:19:29;;;;;;;8.32;7.78;;;35.20;29.20;;;;;;5034933;28;20212;-83
2022/08/25 12:22:01;;;;;;;7.53;7.00;;;35.20;29.00;;;;;;5036939;28;20631;-85
2022/08/25 12:24:42;;;;;;;7.68;7.18;;;35.30;29.30;;;;;;5032903;28;20271;-85
2022/08/25 12:27:25;;;;;;;7.85;7.32;;;35.50;28.80;;;;;;5034210;28;20185;-84
2022/08/25 12:30:04;;;;;;;7.40;6.80;;;35.80;28.20;;;;;;5044306;28;20230;-84
2022/08/25 12:32:54;;;;;;;7.85;7.25;;;36.10;28.10;;;;;;5036755;28;20192;-85
2022/08/25 12:35:30;;;;;;;8.52;7.85;;;36.20;27.80;;;;;;5033380;28;21332;-85
2022/08/25 12:38:03;;;;;;;7.80;7.30;;;36.30;27.90;;;;;;5035171;28;20188;-86
2022/08/25 12:40:43;;;;;;;7.60;7.20;;;36.40;27.40;;;;;;5025912;28;20200;-86
2022/08/25 12:43:34;;;;;;;7.32;6.72;;;36.00;27.80;;;;;;5031763;28;20667;-86
2022/08/25 12:46:18;;;;;;;6.60;6.20;;;35.90;27.90;;;;;;5031340;28;20188;-86
2022/08/25 12:48:56;;;;;;;6.95;6.55;;;35.80;27.70;;;;;;5030328;28;20237;-86
2022/08/25 12:51:31;;;;;;;7.28;6.68;;;36.00;27.90;;;;;;5030570;28;20219;-85
2022/08/25 12:54:21;;;;;;;8.55;7.80;;;36.30;27.50;;;;;;5032238;28;20222;-85
2022/08/25 12:57:31;;;;;;;7.50;7.10;;;37.00;27.00;;;;;;5031481;28;20576;-86
2022/08/25 12:59:58;;;;;;;7.35;6.95;;;36.90;26.30;;;;;;5031450;28;20207;-84
2022/08/25 13:02:46;;;;;;;7.57;7.07;;;37.10;26.50;;;;;;5047740;28;20164;-82
2022/08/25 13:05:32;;;;;;;7.22;6.82;;;37.10;26.60;;;;;;5031905;28;20180;-83
2022/08/25 13:08:25;;;;;;;7.68;7.18;;;37.30;26.50;;;;;;5031453;28;20666;-86
2022/08/25 13:10:56;;;;;;;7.32;6.82;;;37.30;26.60;;;;;;5019010;28;20326;-86
2022/08/25 13:13:43;;;;;;;7.28;6.88;;;36.80;26.60;;;;;;5032004;28;20230;-84
2022/08/25 13:16:20;;;;;;;7.90;7.20;;;36.70;26.60;;;;;;5026315;28;20180;-87
2022/08/25 13:18:46;;;;;;;8.15;7.57;;;36.60;26.50;;;;;;5027226;28;20623;-85
2022/08/25 13:21:26;;;;;;;7.38;6.97;;;37.00;26.50;;;;;;5031222;28;20247;-85